METAR Data
IDs: Format: Raw Decoded Include TAF

Data at: 1353 UTC 26 Feb 2021

LIRH 261255Z 19002KT 7000 NSC 21/06 Q1026 RMK SKC MON LIB NC VIS MIN 7000 WIND THR16 /////KT WHT